Terminal Aerodrome Forecast
Issued by NWS

Home | Current Version | Previous Version | Text Only | Print | Product List | Glossary On
Versions: 1 2 3 4 5 6 7 8 9 10 11 12 13 14 15 16 17 18
471
FTUS41 KPBZ 120520
TAFZZV
TAF
KZZV 120520Z 1206/1306 20008KT P6SM OVC080
     FM121100 28012G25KT P6SM OVC015
     FM121500 29014G28KT P6SM OVC025
     FM130200 30015G30KT P6SM BKN035=

USA.gov is the U.S. government's official web portal to all federal, state and local government web resources and services.